createdAt,value
2023-03-14T00:01:34.120Z,95947.13
2023-03-14T00:04:01.421Z,95943.66
2023-03-14T00:06:28.964Z,95933.78
2023-03-14T00:08:56.099Z,95926.28
2023-03-14T00:11:23.265Z,95924.84
2023-03-14T00:14:10.263Z,95920.97
2023-03-14T00:16:37.282Z,95919.78
2023-03-14T00:19:04.351Z,95924.25
2023-03-14T00:21:31.371Z,95931.28
2023-03-14T00:23:58.666Z,95929.84
2023-03-14T00:26:25.703Z,95932.25
2023-03-14T00:28:53.303Z,95925.97
2023-03-14T00:31:20.651Z,95944.84
2023-03-14T00:33:48.026Z,95953.06
2023-03-14T00:36:16.973Z,95960.38
2023-03-14T00:38:45.448Z,95969.84
2023-03-14T00:41:15.338Z,95980.63
2023-03-14T00:43:42.623Z,95985.38
2023-03-14T00:46:09.930Z,95987.38
2023-03-14T00:48:37.268Z,95988.69
2023-03-14T00:51:05.400Z,95993.56
2023-03-14T00:53:32.497Z,96001.78
2023-03-14T00:56:03.806Z,95980.94
2023-03-14T00:58:30.868Z,95964.56
2023-03-14T01:00:58.015Z,95970.16
2023-03-14T01:03:25.619Z,95969.34
2023-03-14T01:05:52.759Z,95977.41
2023-03-14T01:08:19.830Z,95987.19
2023-03-14T01:10:47.016Z,96007.59
2023-03-14T01:13:14.341Z,96011.78
2023-03-14T01:15:41.466Z,96016.78
2023-03-14T01:18:08.866Z,96012.47
2023-03-14T01:20:38.066Z,96013.75
2023-03-14T01:23:05.178Z,96008.00
2023-03-14T01:25:32.603Z,96010.19
2023-03-14T01:28:01.757Z,95997.66
2023-03-14T01:30:29.134Z,96009.31
2023-03-14T01:32:56.271Z,96003.44
2023-03-14T01:35:23.421Z,95999.25
2023-03-14T01:37:50.572Z,96004.88
2023-03-14T01:40:18.390Z,96006.00
2023-03-14T01:42:47.279Z,95997.06
2023-03-14T01:45:52.035Z,95998.94
2023-03-14T01:48:19.325Z,95996.34
2023-03-14T01:50:46.669Z,95989.19
2023-03-14T01:53:14.353Z,95977.13
2023-03-14T01:55:41.593Z,95980.88
2023-03-14T01:58:08.856Z,95989.84
2023-03-14T02:00:36.231Z,95995.63
2023-03-14T02:03:06.851Z,95979.53
2023-03-14T02:05:35.971Z,95987.31
2023-03-14T02:08:05.372Z,95973.94
2023-03-14T02:10:34.553Z,95982.28
2023-03-14T02:13:07.141Z,95967.03
2023-03-14T02:15:34.663Z,95968.91
2023-03-14T02:18:03.405Z,95961.25
2023-03-14T02:20:52.156Z,95962.84
2023-03-14T02:23:48.734Z,95940.84
2023-03-14T02:26:24.290Z,95951.22
2023-03-14T02:28:51.889Z,95937.09
2023-03-14T02:31:19.089Z,95947.66
2023-03-14T02:33:46.615Z,95950.94
2023-03-14T02:36:15.529Z,95948.47
2023-03-14T02:38:59.500Z,95942.16
2023-03-14T02:41:26.624Z,95935.06
2023-03-14T02:43:54.127Z,95933.06
2023-03-14T02:46:22.300Z,95921.25
2023-03-14T02:48:52.986Z,95912.91
2023-03-14T02:51:21.455Z,95909.16
2023-03-14T02:53:49.117Z,95909.56
2023-03-14T02:56:16.626Z,95909.25
2023-03-14T02:58:43.684Z,95901.63
2023-03-14T03:01:10.853Z,95904.22
2023-03-14T03:03:39.426Z,95936.00
2023-03-14T03:06:06.842Z,95914.72
2023-03-14T03:08:34.118Z,95919.63
2023-03-14T03:11:01.158Z,95934.31
2023-03-14T03:13:28.240Z,95926.50
2023-03-14T03:15:55.300Z,95926.06
2023-03-14T03:18:22.419Z,95956.69
2023-03-14T03:20:49.513Z,95939.88
2023-03-14T03:23:16.606Z,95958.69
2023-03-14T03:25:49.250Z,95950.22
2023-03-14T03:28:16.321Z,95957.69
2023-03-14T03:30:44.262Z,95946.03
2023-03-14T03:33:12.279Z,95938.41
2023-03-14T03:35:43.921Z,95939.53
2023-03-14T03:38:12.628Z,95931.75
2023-03-14T03:40:39.928Z,95921.22
2023-03-14T03:43:07.381Z,95920.94
2023-03-14T03:45:34.430Z,95931.28
2023-03-14T03:48:02.079Z,95932.13
2023-03-14T03:50:29.181Z,95936.88
2023-03-14T03:52:56.263Z,95929.25
2023-03-14T03:55:23.362Z,95934.28
2023-03-14T03:57:50.420Z,95936.16
2023-03-14T04:00:18.475Z,95935.81
2023-03-14T04:02:45.569Z,95945.00
2023-03-14T04:05:13.685Z,95932.06
2023-03-14T04:07:40.977Z,95933.38
2023-03-14T04:10:08.592Z,95938.13
2023-03-14T04:12:35.668Z,95939.41
2023-03-14T04:15:03.761Z,95941.13
2023-03-14T04:17:30.808Z,95954.50
2023-03-14T04:19:57.868Z,95951.06
2023-03-14T04:22:24.947Z,95950.16
2023-03-14T04:24:52.093Z,95946.13
2023-03-14T04:27:19.472Z,95937.38
2023-03-14T04:29:46.493Z,95936.09
2023-03-14T04:32:13.670Z,95928.06
2023-03-14T04:34:40.768Z,95925.88
2023-03-14T04:37:08.011Z,95924.13
2023-03-14T04:39:35.117Z,95918.53
2023-03-14T04:42:02.194Z,95903.88
2023-03-14T04:44:29.266Z,95912.22
2023-03-14T04:46:56.779Z,95917.69
2023-03-14T04:49:24.132Z,95909.19
2023-03-14T04:51:54.223Z,95901.16
2023-03-14T04:54:21.309Z,95900.59
2023-03-14T04:56:48.361Z,95907.50
2023-03-14T04:59:15.763Z,95897.44
2023-03-14T05:01:42.869Z,95902.41
2023-03-14T05:04:09.940Z,95894.41
2023-03-14T05:06:37.285Z,95909.19
2023-03-14T05:09:06.192Z,95884.03
2023-03-14T05:11:33.737Z,95891.81
2023-03-14T05:14:00.874Z,95881.31
2023-03-14T05:16:28.039Z,95874.00
2023-03-14T05:18:55.549Z,95876.72
2023-03-14T05:21:22.586Z,95869.25
2023-03-14T05:23:50.105Z,95864.03
2023-03-14T05:26:17.920Z,95858.00
2023-03-14T05:28:45.101Z,95862.19
2023-03-14T05:31:13.227Z,95869.38
2023-03-14T05:33:40.958Z,95868.81
2023-03-14T05:36:09.215Z,95855.16
2023-03-14T05:38:36.262Z,95865.94
2023-03-14T05:41:03.473Z,95858.06
2023-03-14T05:43:30.574Z,95855.88
2023-03-14T05:45:58.015Z,95851.13
2023-03-14T05:48:25.885Z,95853.88
2023-03-14T05:50:57.154Z,95848.81
2023-03-14T05:53:24.314Z,95846.97
2023-03-14T05:55:56.809Z,95848.81
2023-03-14T05:58:25.146Z,95848.81
2023-03-14T06:00:53.032Z,95862.47
2023-03-14T06:03:20.203Z,95849.53
2023-03-14T06:05:47.439Z,95854.44
2023-03-14T06:08:16.831Z,95857.34
2023-03-14T06:10:45.095Z,95859.22
2023-03-14T06:13:12.265Z,95865.00
2023-03-14T06:15:39.479Z,95865.13
2023-03-14T06:18:06.649Z,95868.59
2023-03-14T06:20:34.322Z,95883.16
2023-03-14T06:23:01.733Z,95886.75
2023-03-14T06:25:28.888Z,95887.88
2023-03-14T06:27:56.109Z,95878.53
2023-03-14T06:30:23.214Z,95873.06
2023-03-14T06:32:50.790Z,95872.94
2023-03-14T06:35:18.290Z,95866.16
2023-03-14T06:37:45.426Z,95866.47
2023-03-14T06:40:17.902Z,95858.25
2023-03-14T06:42:45.667Z,95863.72
2023-03-14T06:45:13.595Z,95871.34
2023-03-14T06:47:40.892Z,95858.97
2023-03-14T06:50:09.939Z,95863.88
2023-03-14T06:52:37.546Z,95874.97
2023-03-14T06:55:04.970Z,95868.22
2023-03-14T06:57:32.502Z,95874.09
2023-03-14T06:59:59.554Z,95876.41
2023-03-14T07:02:39.904Z,95869.78
2023-03-14T07:05:11.318Z,95869.06
2023-03-14T07:07:38.428Z,95873.81
2023-03-14T07:10:06.039Z,95886.19
2023-03-14T07:12:33.146Z,95893.69
2023-03-14T07:15:11.950Z,95888.53
2023-03-14T07:17:44.455Z,95893.56
2023-03-14T07:20:11.745Z,95892.97
2023-03-14T07:22:38.815Z,95904.94
2023-03-14T07:25:06.422Z,95898.19
2023-03-14T07:27:33.525Z,95902.94
2023-03-14T07:30:00.605Z,95900.78
2023-03-14T07:32:28.293Z,95893.44
2023-03-14T07:34:55.445Z,95901.63
2023-03-14T07:37:22.836Z,95895.44
2023-03-14T07:39:50.090Z,95888.69
2023-03-14T07:42:17.168Z,95897.75
2023-03-14T07:44:44.351Z,95895.59
2023-03-14T07:47:12.425Z,95891.16
2023-03-14T07:49:39.877Z,95889.28
2023-03-14T07:52:06.982Z,95896.50
2023-03-14T07:54:34.174Z,95898.09
2023-03-14T07:57:01.643Z,95888.72
2023-03-14T07:59:28.873Z,95897.81
2023-03-14T08:01:55.936Z,95891.03
2023-03-14T08:04:23.126Z,95889.59
2023-03-14T08:06:50.229Z,95887.00
2023-03-14T08:09:17.280Z,95891.63
2023-03-14T08:11:44.443Z,95880.09
2023-03-14T08:14:12.300Z,95878.81
2023-03-14T08:16:39.497Z,95872.19
2023-03-14T08:19:06.542Z,95864.16
2023-03-14T08:21:33.963Z,95861.56
2023-03-14T08:24:01.768Z,95865.00
2023-03-14T08:26:29.120Z,95856.94
2023-03-14T08:28:56.253Z,95849.91
2023-03-14T08:31:23.537Z,95848.19
2023-03-14T08:33:53.022Z,95836.53
2023-03-14T08:36:23.225Z,95847.75
2023-03-14T08:38:51.188Z,95836.81
2023-03-14T08:41:18.325Z,95843.84
2023-03-14T08:43:45.569Z,95842.56
2023-03-14T08:46:12.626Z,95853.63
2023-03-14T08:48:39.657Z,95854.94
2023-03-14T08:51:08.547Z,95857.81
2023-03-14T08:53:35.684Z,95853.81
2023-03-14T08:56:02.792Z,95872.66
2023-03-14T08:58:30.457Z,95864.31
2023-03-14T09:00:57.921Z,95858.38
2023-03-14T09:03:26.169Z,95864.31
2023-03-14T09:05:53.731Z,95876.97
2023-03-14T09:08:20.777Z,95892.56
2023-03-14T09:10:47.900Z,95884.91
2023-03-14T09:13:14.985Z,95895.44
2023-03-14T09:15:43.475Z,95891.84
2023-03-14T09:18:10.615Z,95890.97
2023-03-14T09:20:37.912Z,95894.13
2023-03-14T09:23:04.991Z,95899.59
2023-03-14T09:25:32.033Z,95903.66
2023-03-14T09:27:59.096Z,95906.97
2023-03-14T09:30:26.138Z,95907.81
2023-03-14T09:32:53.359Z,95907.81
2023-03-14T09:35:20.512Z,95905.09
2023-03-14T09:37:47.689Z,95899.59
2023-03-14T09:40:16.796Z,95901.06
2023-03-14T09:42:43.861Z,95910.84
2023-03-14T09:45:18.747Z,95904.22
2023-03-14T09:47:58.594Z,95908.25
2023-03-14T09:50:33.004Z,95902.78
2023-03-14T09:53:03.688Z,95903.22
2023-03-14T09:55:30.822Z,95900.47
2023-03-14T09:58:01.449Z,95903.91
2023-03-14T10:00:30.424Z,95899.03
2023-03-14T10:03:03.565Z,95914.88
2023-03-14T10:05:30.726Z,95901.34
2023-03-14T10:07:57.789Z,95897.72
2023-03-14T10:10:26.871Z,95906.09
2023-03-14T10:12:59.195Z,95912.00
2023-03-14T10:15:31.075Z,95916.88
2023-03-14T10:18:00.208Z,95915.31
2023-03-14T10:20:42.736Z,95906.69
2023-03-14T10:23:12.554Z,95902.91
2023-03-14T10:25:42.234Z,95898.88
2023-03-14T10:28:25.238Z,95895.44
2023-03-14T10:30:52.579Z,95897.16
2023-03-14T10:33:21.407Z,95898.44
2023-03-14T10:36:04.577Z,95902.59
2023-03-14T10:38:36.685Z,95898.72
2023-03-14T10:41:16.636Z,95905.91
2023-03-14T10:43:44.270Z,95908.31
2023-03-14T10:46:21.335Z,95900.13
2023-03-14T10:48:50.789Z,95897.25
2023-03-14T10:51:17.762Z,95898.56
2023-03-14T10:54:02.629Z,95902.72
2023-03-14T10:56:37.813Z,95921.06
2023-03-14T10:59:08.652Z,95906.06
2023-03-14T11:01:48.033Z,95909.53
2023-03-14T11:04:25.382Z,95900.72
2023-03-14T11:07:02.831Z,95905.03
2023-03-14T11:09:47.325Z,95905.91
2023-03-14T11:12:51.906Z,95908.66
2023-03-14T11:15:38.058Z,95905.00
2023-03-14T11:18:17.353Z,95901.81
2023-03-14T11:20:57.143Z,95886.06
2023-03-14T11:23:47.796Z,95896.00
2023-03-14T11:26:26.323Z,95902.91
2023-03-14T11:28:58.762Z,95899.03
2023-03-14T11:31:27.281Z,95902.84
2023-03-14T11:34:25.793Z,95901.22
2023-03-14T11:36:55.181Z,95896.78
2023-03-14T11:39:22.510Z,95899.25
2023-03-14T11:41:54.322Z,95915.09
2023-03-14T11:44:28.389Z,95913.66
2023-03-14T11:47:04.387Z,95902.84
2023-03-14T11:49:39.944Z,95908.47
2023-03-14T11:52:12.173Z,95909.63
2023-03-14T11:54:47.935Z,95920.16
2023-03-14T11:57:20.576Z,95907.16
2023-03-14T12:00:10.793Z,95893.91
2023-03-14T12:02:58.916Z,95892.88
2023-03-14T12:05:41.286Z,95890.69
2023-03-14T12:08:08.534Z,95899.59
2023-03-14T12:10:41.763Z,95893.94
2023-03-14T12:13:12.363Z,95902.28
2023-03-14T12:15:41.786Z,95889.75
2023-03-14T12:18:21.328Z,95873.91
2023-03-14T12:20:53.444Z,95886.59
2023-03-14T12:23:21.519Z,95889.03
2023-03-14T12:25:49.121Z,95885.16
2023-03-14T12:28:20.308Z,95881.00
2023-03-14T12:30:47.504Z,95881.00
2023-03-14T12:33:28.706Z,95874.06
2023-03-14T12:36:04.879Z,95879.56
2023-03-14T12:38:47.083Z,95878.53
2023-03-14T12:41:31.015Z,95878.66
2023-03-14T12:44:35.894Z,95880.22
2023-03-14T12:47:21.178Z,95872.47
2023-03-14T12:49:51.024Z,95869.00
2023-03-14T12:52:21.294Z,95874.50
2023-03-14T12:55:04.682Z,95867.16
2023-03-14T12:57:59.409Z,95858.25
2023-03-14T13:00:39.381Z,95862.81
2023-03-14T13:03:23.268Z,95864.00
2023-03-14T13:06:01.496Z,95855.53
2023-03-14T13:08:45.833Z,95858.25
2023-03-14T13:11:22.366Z,95843.69
2023-03-14T13:13:53.561Z,95840.81
2023-03-14T13:16:21.926Z,95837.47
2023-03-14T13:18:50.503Z,95837.91
2023-03-14T13:21:21.035Z,95843.50
2023-03-14T13:23:56.770Z,95838.69
2023-03-14T13:26:37.630Z,95838.53
2023-03-14T13:29:32.472Z,95839.66
2023-03-14T13:32:18.262Z,95831.28
2023-03-14T13:34:46.100Z,95831.97
2023-03-14T13:37:18.026Z,95828.63
2023-03-14T13:39:50.516Z,95836.50
2023-03-14T13:42:17.828Z,95832.00
2023-03-14T13:44:45.757Z,95835.94
2023-03-14T13:47:16.386Z,95830.56
2023-03-14T13:49:44.164Z,95829.78
2023-03-14T13:52:25.682Z,95830.03
2023-03-14T13:54:56.898Z,95823.00
2023-03-14T13:57:24.261Z,95839.25
2023-03-14T14:00:10.210Z,95839.31
2023-03-14T14:02:38.405Z,95821.50
2023-03-14T14:05:05.745Z,95827.19
2023-03-14T14:07:32.817Z,95831.63
2023-03-14T14:10:01.411Z,95826.13
2023-03-14T14:12:35.948Z,95822.69
2023-03-14T14:15:07.507Z,95820.91
2023-03-14T14:17:41.937Z,95835.84
2023-03-14T14:20:32.802Z,95822.13
2023-03-14T14:23:01.392Z,95803.81
2023-03-14T14:25:29.814Z,95815.00
2023-03-14T14:27:57.044Z,95804.25
2023-03-14T14:30:31.024Z,95800.38
2023-03-14T14:33:20.656Z,95799.06
2023-03-14T14:35:57.016Z,95799.06
2023-03-14T14:38:25.138Z,95801.28
2023-03-14T14:40:54.938Z,95808.75
2023-03-14T14:43:25.397Z,95811.34
2023-03-14T14:45:55.023Z,95810.59
2023-03-14T14:48:24.652Z,95808.47
2023-03-14T14:50:57.524Z,95800.88
2023-03-14T14:53:30.817Z,95814.19
2023-03-14T14:56:00.556Z,95813.63
2023-03-14T14:58:30.508Z,95808.41
2023-03-14T15:01:11.622Z,95803.03
2023-03-14T15:03:39.232Z,95825.44
2023-03-14T15:06:06.413Z,95820.28
2023-03-14T15:08:34.264Z,95834.28
2023-03-14T15:11:01.337Z,95825.09
2023-03-14T15:13:28.465Z,95845.59
2023-03-14T15:15:58.505Z,95865.41
2023-03-14T15:18:30.791Z,95853.34
2023-03-14T15:20:58.185Z,95871.41
2023-03-14T15:23:25.370Z,95865.53
2023-03-14T15:25:55.774Z,95867.16
2023-03-14T15:28:25.608Z,95869.78
2023-03-14T15:30:55.566Z,95876.56
2023-03-14T15:33:23.095Z,95879.88
2023-03-14T15:35:50.166Z,95884.50
2023-03-14T15:38:22.066Z,95882.88
2023-03-14T15:40:50.090Z,95899.41
2023-03-14T15:43:17.471Z,95906.88
2023-03-14T15:45:44.515Z,95901.81
2023-03-14T15:48:22.281Z,95903.94
2023-03-14T15:50:49.466Z,95914.28
2023-03-14T15:53:16.966Z,95918.00
2023-03-14T15:55:44.171Z,95925.28
2023-03-14T15:58:19.960Z,95923.72
2023-03-14T16:00:49.956Z,95934.31
2023-03-14T16:03:17.542Z,95942.94
2023-03-14T16:05:44.619Z,95938.81
2023-03-14T16:08:11.756Z,95946.81
2023-03-14T16:10:39.921Z,95946.91
2023-03-14T16:13:06.994Z,95963.22
2023-03-14T16:15:34.051Z,95980.25
2023-03-14T16:18:06.462Z,95982.75
2023-03-14T16:20:47.921Z,96105.56
2023-03-14T16:23:16.425Z,96092.34
2023-03-14T16:25:45.370Z,96112.94
2023-03-14T16:28:12.406Z,96119.97
2023-03-14T16:30:39.479Z,96141.88
2023-03-14T16:33:12.484Z,96165.69
2023-03-14T16:35:40.636Z,96190.38
2023-03-14T16:38:07.802Z,96220.06
2023-03-14T16:40:34.961Z,96246.56
2023-03-14T16:43:15.620Z,96260.72
2023-03-14T16:45:43.361Z,96292.06
2023-03-14T16:48:10.436Z,96305.81
2023-03-14T16:50:40.304Z,96317.19
2023-03-14T16:53:10.906Z,96342.72
2023-03-14T16:55:42.888Z,96351.31
2023-03-14T16:58:10.571Z,96367.81
2023-03-14T17:00:38.188Z,96377.75
2023-03-14T17:03:05.719Z,96397.16
2023-03-14T17:05:33.276Z,96412.91
2023-03-14T17:08:00.304Z,96441.03
2023-03-14T17:10:27.380Z,96455.00
2023-03-14T17:12:54.446Z,96486.56
2023-03-14T17:15:21.644Z,96494.25
2023-03-14T17:17:48.928Z,96522.06
2023-03-14T17:20:19.360Z,96527.56
2023-03-14T17:22:46.371Z,96544.13
2023-03-14T17:25:14.258Z,96558.94
2023-03-14T17:27:41.350Z,96583.38
2023-03-14T17:30:10.007Z,96606.16
2023-03-14T17:32:37.056Z,96629.13
2023-03-14T17:35:04.463Z,96632.25
2023-03-14T17:37:31.562Z,96642.50
2023-03-14T17:40:01.690Z,96658.38
2023-03-14T17:42:28.848Z,96672.28
2023-03-14T17:44:58.092Z,96675.03
2023-03-14T17:47:25.321Z,96685.97
2023-03-14T17:49:52.598Z,96689.25
2023-03-14T17:52:19.899Z,96702.06
2023-03-14T17:54:47.129Z,96703.59
2023-03-14T17:57:14.251Z,96711.22
2023-03-14T17:59:42.705Z,96705.78
2023-03-14T18:02:11.078Z,96694.97
2023-03-14T18:04:38.434Z,96709.75
2023-03-14T18:07:05.560Z,96723.53
2023-03-14T18:09:32.622Z,96738.53
2023-03-14T18:12:07.432Z,96732.38
2023-03-14T18:14:38.899Z,96739.06
2023-03-14T18:17:06.454Z,96746.44
2023-03-14T18:19:33.717Z,96763.88
2023-03-14T18:22:00.795Z,96768.53
2023-03-14T18:24:28.898Z,96779.09
2023-03-14T18:26:56.467Z,96778.84
2023-03-14T18:29:23.570Z,96785.25
2023-03-14T18:31:51.153Z,96787.00
2023-03-14T18:34:19.109Z,96793.88
2023-03-14T18:36:46.196Z,96795.56
2023-03-14T18:39:13.660Z,96808.84
2023-03-14T18:41:40.999Z,96807.84
2023-03-14T18:44:09.223Z,96826.06
2023-03-14T18:46:36.422Z,96818.91
2023-03-14T18:49:04.446Z,96831.19
2023-03-14T18:51:32.899Z,96840.06
2023-03-14T18:54:10.388Z,96842.75
2023-03-14T18:56:39.745Z,96857.50
2023-03-14T18:59:08.806Z,96855.53
2023-03-14T19:01:37.022Z,96866.84
2023-03-14T19:04:04.908Z,96869.53
2023-03-14T19:06:32.869Z,96877.66
2023-03-14T19:09:01.253Z,96892.66
2023-03-14T19:11:28.899Z,96896.59
2023-03-14T19:13:56.827Z,96895.63
2023-03-14T19:16:24.908Z,96896.34
2023-03-14T19:18:52.418Z,96903.50
2023-03-14T19:21:31.212Z,96908.44
2023-03-14T19:23:58.702Z,96914.09
2023-03-14T19:26:25.915Z,96922.44
2023-03-14T19:28:53.001Z,96927.13
2023-03-14T19:31:20.548Z,96920.25
2023-03-14T19:33:47.702Z,96925.66
2023-03-14T19:36:28.591Z,96942.59
2023-03-14T19:38:56.181Z,96952.47
2023-03-14T19:41:24.642Z,96959.09
2023-03-14T19:43:52.003Z,96963.00
2023-03-14T19:46:19.174Z,96967.22
2023-03-14T19:48:47.387Z,96978.25
2023-03-14T19:51:15.541Z,96985.41
2023-03-14T19:53:43.951Z,96984.16
2023-03-14T19:56:11.355Z,96989.56
2023-03-14T19:58:39.598Z,97005.28
2023-03-14T20:01:08.092Z,97003.09
2023-03-14T20:03:36.507Z,97005.28
2023-03-14T20:06:08.245Z,97014.13
2023-03-14T20:08:35.322Z,97012.19
2023-03-14T20:11:07.195Z,97017.09
2023-03-14T20:13:34.593Z,97024.72
2023-03-14T20:16:05.159Z,97027.44
2023-03-14T20:18:32.541Z,97031.13
2023-03-14T20:21:00.041Z,97032.09
2023-03-14T20:23:27.206Z,97042.19
2023-03-14T20:25:59.620Z,97042.41
2023-03-14T20:28:28.923Z,97046.84
2023-03-14T20:30:57.816Z,97056.94
2023-03-14T20:33:25.115Z,97058.41
2023-03-14T20:35:59.760Z,97069.69
2023-03-14T20:38:27.655Z,97069.69
2023-03-14T20:40:59.407Z,97079.03
2023-03-14T20:43:27.227Z,97088.38
2023-03-14T20:45:55.516Z,97096.72
2023-03-14T20:48:23.077Z,97101.13
2023-03-14T20:50:50.209Z,97103.38
2023-03-14T20:53:18.068Z,97109.50
2023-03-14T20:55:45.195Z,97111.25
2023-03-14T20:58:15.302Z,97122.28
2023-03-14T21:00:48.139Z,97130.91
2023-03-14T21:03:16.528Z,97136.31
2023-03-14T21:05:47.800Z,97136.81
2023-03-14T21:08:17.356Z,97136.03
2023-03-14T21:10:47.975Z,97142.69
2023-03-14T21:13:15.232Z,97139.97
2023-03-14T21:15:42.439Z,97149.31
2023-03-14T21:18:09.787Z,97152.53
2023-03-14T21:20:42.460Z,97155.97
2023-03-14T21:23:11.748Z,97151.03
2023-03-14T21:25:39.058Z,97150.53
2023-03-14T21:28:06.192Z,97149.06
2023-03-14T21:30:34.408Z,97148.09
2023-03-14T21:33:01.613Z,97158.41
2023-03-14T21:35:29.171Z,97159.16
2023-03-14T21:37:56.188Z,97166.75
2023-03-14T21:40:24.350Z,97168.00
2023-03-14T21:42:54.396Z,97173.41
2023-03-14T21:45:26.055Z,97169.72
2023-03-14T21:47:57.988Z,97169.22
2023-03-14T21:50:26.370Z,97180.28
2023-03-14T21:52:56.643Z,97185.69
2023-03-14T21:55:25.381Z,97193.81
2023-03-14T21:57:54.198Z,97203.91
2023-03-14T22:00:21.800Z,97201.94
2023-03-14T22:03:10.983Z,97202.44
2023-03-14T22:05:38.662Z,97212.75
2023-03-14T22:08:05.982Z,97212.72
2023-03-14T22:10:33.170Z,97218.16
2023-03-14T22:13:00.384Z,97215.69
2023-03-14T22:15:27.489Z,97220.59
2023-03-14T22:17:54.514Z,97219.63
2023-03-14T22:20:21.783Z,97220.09
2023-03-14T22:22:48.858Z,97220.09
2023-03-14T22:25:15.900Z,97229.94
2023-03-14T22:27:42.932Z,97233.34
2023-03-14T22:30:10.674Z,97231.16
2023-03-14T22:32:37.756Z,97241.47
2023-03-14T22:35:05.113Z,97248.56
2023-03-14T22:37:32.151Z,97249.81
2023-03-14T22:39:59.288Z,97263.81
2023-03-14T22:42:26.519Z,97263.78
2023-03-14T22:44:53.673Z,97257.41
2023-03-14T22:47:20.911Z,97261.34
2023-03-14T22:49:48.047Z,97270.41
2023-03-14T22:52:15.164Z,97272.88
2023-03-14T22:54:42.477Z,97270.88
2023-03-14T22:57:09.618Z,97275.06
2023-03-14T22:59:36.717Z,97275.03
2023-03-14T23:02:03.816Z,97279.22
2023-03-14T23:04:30.846Z,97285.34
2023-03-14T23:06:57.920Z,97290.25
2023-03-14T23:09:25.213Z,97290.25
2023-03-14T23:11:52.370Z,97281.41
2023-03-14T23:14:22.972Z,97280.94
2023-03-14T23:16:50.838Z,97285.81
2023-03-14T23:19:18.268Z,97284.81
2023-03-14T23:21:45.714Z,97292.19
2023-03-14T23:24:13.170Z,97303.97
2023-03-14T23:26:40.210Z,97304.44
2023-03-14T23:29:07.349Z,97296.53
2023-03-14T23:31:34.432Z,97309.25
2023-03-14T23:34:01.956Z,97316.13
2023-03-14T23:36:29.694Z,97321.53
2023-03-14T23:38:57.759Z,97323.75
2023-03-14T23:41:24.855Z,97324.19
2023-03-14T23:43:52.231Z,97330.34
2023-03-14T23:46:19.337Z,97336.75
2023-03-14T23:48:47.237Z,97333.31
2023-03-14T23:51:15.062Z,97341.63
2023-03-14T23:53:42.777Z,97352.91
2023-03-14T23:56:11.550Z,97346.53
2023-03-14T23:58:38.584Z,97354.13
